Time;durP1;ratioP1;P1;durP2;ratioP2;P2;SDS_P1;SDS_P2;PMS_P1;PMS_P2;Temp;Humidity;BMP_temperature;BMP_pressure;BME280_temperature;BME280_humidity;BME280_pressure;Samples;Min_cycle;Max_cycle;Signal;HPM_P1;HPM_P2
2023/07/04 00:01:05;;;;;;;9.80;6.20;;;;;;;20.97;55.74;100401.30;107778;1257;62433;-78
2023/07/04 00:03:33;;;;;;;11.50;6.80;;;;;;;20.80;56.08;100401.89;107765;1256;61156;-78
2023/07/04 00:06:01;;;;;;;9.70;7.30;;;;;;;20.60;56.49;100401.69;107827;1257;73072;-78
2023/07/04 00:08:29;;;;;;;11.90;7.30;;;;;;;20.53;56.89;100402.09;107781;1256;72782;-78
2023/07/04 00:10:56;;;;;;;9.80;7.90;;;;;;;20.50;57.13;100403.64;107841;1256;72710;-78
2023/07/04 00:13:28;;;;;;;9.10;7.50;;;;;;;20.45;57.42;100402.61;107847;1256;61803;-78
2023/07/04 00:15:55;;;;;;;12.10;8.10;;;;;;;20.31;57.89;100408.00;107907;1257;61137;-78
2023/07/04 00:18:24;;;;;;;13.10;7.00;;;;;;;20.23;58.11;100402.73;107876;1257;74513;-77
2023/07/04 00:20:55;;;;;;;10.20;7.70;;;;;;;20.18;58.18;100403.46;107822;1256;73245;-77
2023/07/04 00:23:35;;;;;;;12.00;8.00;;;;;;;20.12;58.29;100402.30;107854;1256;72364;-77
2023/07/04 00:26:04;;;;;;;9.60;7.70;;;;;;;20.07;58.51;100404.57;107988;1256;62047;-78
2023/07/04 00:28:33;;;;;;;11.30;7.90;;;;;;;20.04;58.63;100402.80;108085;1256;61269;-78
2023/07/04 00:31:03;;;;;;;9.90;7.90;;;;;;;20.01;58.78;100404.91;108209;1256;73307;-77
2023/07/04 00:33:33;;;;;;;12.10;8.00;;;;;;;19.99;58.93;100403.14;108188;1256;71185;-76
2023/07/04 00:36:07;;;;;;;11.40;7.70;;;;;;;19.97;59.27;100408.48;108069;1256;70993;-76
2023/07/04 00:38:36;;;;;;;12.90;8.00;;;;;;;19.95;59.45;100410.39;107847;1257;60721;-77
2023/07/04 00:41:16;;;;;;;10.50;8.20;;;;;;;19.95;59.65;100414.58;107863;1257;61122;-77
2023/07/04 00:43:59;;;;;;;10.10;8.00;;;;;;;19.94;59.84;100416.77;107838;1262;73786;-76
2023/07/04 00:46:53;;;;;;;11.80;8.30;;;;;;;19.93;60.06;100413.96;107822;1256;72630;-78
2023/07/04 00:49:23;;;;;;;11.90;7.90;;;;;;;19.90;60.37;100416.40;107802;1260;72668;-77
2023/07/04 00:52:06;;;;;;;10.60;7.90;;;;;;;19.88;60.73;100420.36;107868;1257;61685;-76
2023/07/04 00:54:40;;;;;;;9.70;7.80;;;;;;;19.88;61.04;100423.52;107873;1257;61343;-76
2023/07/04 00:57:07;;;;;;;11.20;8.10;;;;;;;19.88;61.17;100425.16;107910;1256;74626;-77
2023/07/04 00:59:43;;;;;;;11.70;7.80;;;;;;;19.86;61.21;100424.77;107828;1256;72819;-77
2023/07/04 01:02:11;;;;;;;10.00;7.60;;;;;;;19.83;61.34;100423.63;107799;1256;71396;-77
2023/07/04 01:04:38;;;;;;;12.80;8.10;;;;;;;19.79;61.30;100420.29;107812;1259;61975;-78
2023/07/04 01:07:46;;;;;;;9.00;7.80;;;;;;;19.76;61.52;100426.33;107748;1256;61122;-78
2023/07/04 01:10:17;;;;;;;10.50;7.70;;;;;;;19.71;61.53;100430.80;107858;1256;74558;-78
2023/07/04 01:12:45;;;;;;;10.70;7.60;;;;;;;19.66;61.55;100430.95;107840;1256;72705;-77
2023/07/04 01:15:12;;;;;;;10.40;7.60;;;;;;;19.59;61.77;100435.08;107812;1257;72425;-77
2023/07/04 01:17:42;;;;;;;10.20;7.60;;;;;;;19.51;61.89;100433.49;107791;1257;62046;-78
2023/07/04 01:20:13;;;;;;;9.50;7.50;;;;;;;19.45;62.14;100439.04;107862;1257;61179;-77
2023/07/04 01:23:05;;;;;;;9.80;7.70;;;;;;;19.35;62.19;100440.63;107784;1256;74684;-77
2023/07/04 01:25:44;;;;;;;8.90;7.00;;;;;;;19.26;62.53;100438.74;107834;1256;71874;-77
2023/07/04 01:28:13;;;;;;;9.20;7.10;;;;;;;19.26;62.64;100441.68;107730;1262;73909;-77
2023/07/04 01:30:41;;;;;;;8.10;7.20;;;;;;;19.23;62.67;100447.83;107828;1256;62061;-78
2023/07/04 01:33:08;;;;;;;9.50;7.60;;;;;;;19.18;62.83;100455.02;107816;1256;61114;-78
2023/07/04 01:35:37;;;;;;;10.00;7.50;;;;;;;19.13;62.88;100460.33;107853;1256;75435;-77
2023/07/04 01:38:05;;;;;;;8.50;6.90;;;;;;;19.07;62.93;100468.42;107879;1256;72704;-78
2023/07/04 01:40:34;;;;;;;8.50;7.20;;;;;;;18.89;63.26;100464.96;107904;1256;73176;-77
2023/07/04 01:43:02;;;;;;;9.80;7.80;;;;;;;18.67;63.85;100463.42;107891;1260;61103;-78
2023/07/04 01:45:29;;;;;;;9.10;7.70;;;;;;;18.52;64.21;100461.70;107937;1256;61576;-79
2023/07/04 01:47:56;;;;;;;10.40;7.70;;;;;;;18.49;64.42;100460.64;107890;1256;73390;-78
2023/07/04 01:50:23;;;;;;;8.80;7.90;;;;;;;18.46;64.55;100460.34;107867;1257;71420;-78
2023/07/04 01:52:50;;;;;;;8.90;7.80;;;;;;;18.43;64.81;100462.75;107956;1257;72689;-78
2023/07/04 01:55:18;;;;;;;10.10;8.00;;;;;;;18.42;64.95;100472.09;107907;1256;61193;-78
2023/07/04 01:57:46;;;;;;;9.10;7.70;;;;;;;18.36;65.24;100469.48;107799;1256;61342;-78
2023/07/04 02:00:13;;;;;;;11.30;8.40;;;;;;;18.35;65.49;100472.31;107758;1257;74574;-78
2023/07/04 02:02:56;;;;;;;11.50;7.70;;;;;;;18.35;65.65;100481.02;107894;1256;72785;-78
2023/07/04 02:05:25;;;;;;;10.10;8.00;;;;;;;18.37;65.78;100480.60;107922;1256;72470;-78
2023/07/04 02:07:52;;;;;;;9.30;7.60;;;;;;;18.40;65.76;100476.86;107865;1256;61656;-78
2023/07/04 02:10:20;;;;;;;9.70;8.20;;;;;;;18.44;65.93;100482.85;107836;1256;61265;-77
2023/07/04 02:12:47;;;;;;;10.20;8.10;;;;;;;18.46;65.84;100489.11;107846;1257;75148;-77
2023/07/04 02:15:14;;;;;;;9.70;7.80;;;;;;;18.52;65.72;100495.40;107891;1256;72879;-77
2023/07/04 02:17:42;;;;;;;11.80;8.20;;;;;;;18.54;65.79;100494.10;107865;1257;72542;-78
2023/07/04 02:20:10;;;;;;;10.20;7.70;;;;;;;18.57;65.81;100495.55;107827;1256;61969;-79
2023/07/04 02:22:41;;;;;;;10.20;8.40;;;;;;;18.58;66.05;100500.55;107891;1256;61139;-77
2023/07/04 02:25:08;;;;;;;10.60;8.10;;;;;;;18.63;66.38;100499.62;107876;1256;74537;-77
2023/07/04 02:27:35;;;;;;;13.60;8.20;;;;;;;18.66;66.89;100501.25;107859;1256;71721;-76
2023/07/04 02:30:04;;;;;;;10.60;8.00;;;;;;;18.68;67.19;100495.84;107643;1256;72710;-78
2023/07/04 02:32:31;;;;;;;12.90;8.90;;;;;;;18.73;67.34;100492.25;107943;1256;61181;-78
2023/07/04 02:34:59;;;;;;;9.90;8.10;;;;;;;18.80;67.33;100485.57;107850;1256;61292;-76
2023/07/04 02:37:27;;;;;;;10.10;8.20;;;;;;;18.86;67.17;100486.79;107877;1256;76167;-77
2023/07/04 02:39:54;;;;;;;11.40;8.30;;;;;;;18.92;67.20;100489.08;107807;1256;72525;-78
2023/07/04 02:42:22;;;;;;;9.40;7.00;;;;;;;18.99;67.09;100492.79;107874;1256;72513;-78
2023/07/04 02:44:50;;;;;;;11.00;7.70;;;;;;;19.02;66.95;100497.04;107854;1256;61850;-78
2023/07/04 02:47:18;;;;;;;9.10;7.20;;;;;;;19.07;66.72;100495.36;107890;1256;61176;-77
2023/07/04 02:49:45;;;;;;;11.60;7.90;;;;;;;19.04;66.41;100493.25;107842;1260;74508;-77
2023/07/04 02:52:12;;;;;;;8.70;7.00;;;;;;;18.89;66.09;100495.76;107884;1256;72427;-78
2023/07/04 02:54:39;;;;;;;7.80;6.90;;;;;;;18.75;65.93;100496.48;107905;1256;70462;-80
2023/07/04 02:57:13;;;;;;;9.80;8.20;;;;;;;18.60;66.09;100496.65;107868;1257;61746;-76
2023/07/04 02:59:41;;;;;;;8.60;7.00;;;;;;;18.52;66.16;100502.21;107835;1256;61147;-77
2023/07/04 03:02:09;;;;;;;8.60;7.30;;;;;;;18.44;66.14;100503.73;107875;1256;74802;-78
2023/07/04 03:04:36;;;;;;;8.40;7.20;;;;;;;18.36;66.32;100507.95;107659;1256;71664;-77
2023/07/04 03:07:04;;;;;;;10.00;7.30;;;;;;;18.31;66.44;100511.80;107735;1256;72478;-76
2023/07/04 03:09:31;;;;;;;8.30;6.90;;;;;;;18.28;66.55;100512.46;107785;1256;62035;-78
2023/07/04 03:11:59;;;;;;;9.10;7.40;;;;;;;18.27;66.67;100515.52;107779;1256;61657;-78
2023/07/04 03:14:28;;;;;;;10.00;7.50;;;;;;;18.31;66.81;100514.34;107777;1256;74665;-78
2023/07/04 03:16:55;;;;;;;9.30;7.60;;;;;;;18.35;66.90;100515.23;107867;1256;71567;-78
2023/07/04 03:19:22;;;;;;;9.20;7.70;;;;;;;18.42;67.01;100508.34;107736;1256;71369;-78
2023/07/04 03:21:50;;;;;;;9.30;7.30;;;;;;;18.52;67.16;100509.79;107848;1256;61923;-78
2023/07/04 03:24:17;;;;;;;10.10;8.10;;;;;;;18.65;67.09;100506.75;107806;1256;61101;-78
2023/07/04 03:26:45;;;;;;;10.00;8.10;;;;;;;18.78;67.12;100511.35;107808;1256;74684;-78
2023/07/04 03:29:12;;;;;;;10.20;8.00;;;;;;;18.92;67.15;100520.96;107774;1256;73019;-78
2023/07/04 03:31:41;;;;;;;11.40;8.30;;;;;;;19.05;66.98;100515.42;107771;1256;71545;-78
2023/07/04 03:34:09;;;;;;;10.60;7.60;;;;;;;19.19;66.85;100519.75;107827;1257;61915;-77
2023/07/04 03:36:37;;;;;;;8.30;7.00;;;;;;;19.38;66.67;100525.80;107764;1256;61129;-78
2023/07/04 03:39:04;;;;;;;13.10;7.50;;;;;;;19.52;66.43;100521.64;108047;1256;73162;-78
2023/07/04 03:41:32;;;;;;;9.20;7.50;;;;;;;19.63;66.38;100527.88;107885;1256;70838;-78
2023/07/04 03:44:00;;;;;;;12.60;8.40;;;;;;;19.75;66.32;100518.67;107876;1256;72661;-78
2023/07/04 03:46:29;;;;;;;10.10;8.20;;;;;;;19.94;66.12;100515.45;107791;1256;63881;-78
2023/07/04 03:48:57;;;;;;;10.50;8.00;;;;;;;20.09;65.91;100517.28;107787;1256;61215;-78
2023/07/04 03:51:25;;;;;;;9.80;8.00;;;;;;;20.23;65.77;100518.20;107771;1257;73458;-78
2023/07/04 03:53:52;;;;;;;10.80;7.80;;;;;;;20.40;65.55;100515.48;107752;1256;72679;-78
2023/07/04 03:56:19;;;;;;;10.60;8.00;;;;;;;20.57;65.12;100520.51;107833;1256;72764;-77
2023/07/04 03:58:46;;;;;;;9.20;8.30;;;;;;;20.73;64.98;100526.27;107899;1256;61902;-78
2023/07/04 04:01:13;;;;;;;11.50;8.20;;;;;;;20.91;64.59;100526.74;107771;1256;61090;-78
2023/07/04 04:03:40;;;;;;;10.10;8.10;;;;;;;21.06;64.23;100524.33;107735;1256;74565;-77
2023/07/04 04:06:08;;;;;;;12.60;8.50;;;;;;;21.23;63.73;100524.96;107899;1256;72789;-78
2023/07/04 04:08:35;;;;;;;13.40;7.60;;;;;;;21.38;63.42;100528.92;107804;1257;71753;-77
2023/07/04 04:11:02;;;;;;;11.70;8.10;;;;;;;21.54;62.96;100531.68;107823;1256;61964;-79
2023/07/04 04:13:32;;;;;;;12.10;8.70;;;;;;;21.68;62.50;100534.77;107856;1256;61097;-79
2023/07/04 04:15:59;;;;;;;10.90;7.80;;;;;;;21.83;62.12;100533.44;107754;1256;74515;-78
2023/07/04 04:18:26;;;;;;;11.10;8.00;;;;;;;21.98;61.58;100533.14;107775;1256;71452;-79
2023/07/04 04:20:53;;;;;;;9.60;7.70;;;;;;;22.14;61.00;100531.75;107959;1256;72668;-78
2023/07/04 04:23:21;;;;;;;11.90;8.20;;;;;;;22.26;60.30;100533.92;107880;1256;61259;-78
2023/07/04 04:25:48;;;;;;;9.70;7.60;;;;;;;22.38;59.71;100532.13;107835;1256;61081;-79
2023/07/04 04:28:15;;;;;;;10.40;7.80;;;;;;;22.51;58.71;100538.90;107856;1256;73632;-77
2023/07/04 04:30:43;;;;;;;9.20;7.40;;;;;;;22.64;57.93;100535.64;107819;1256;72675;-77
2023/07/04 04:33:10;;;;;;;12.20;8.70;;;;;;;22.78;57.19;100532.91;107820;1260;72708;-78
2023/07/04 04:35:39;;;;;;;10.50;8.10;;;;;;;22.91;56.65;100539.55;107878;1257;61789;-78
2023/07/04 04:38:08;;;;;;;12.90;8.40;;;;;;;23.04;56.17;100543.04;107858;1260;61104;-78
2023/07/04 04:40:35;;;;;;;11.30;7.80;;;;;;;23.17;55.18;100542.52;107905;1256;73520;-78
2023/07/04 04:43:03;;;;;;;9.70;8.00;;;;;;;23.25;54.37;100545.70;107823;1256;72612;-79
2023/07/04 04:45:30;;;;;;;11.80;8.30;;;;;;;23.34;54.28;100548.14;107873;1256;71431;-77
2023/07/04 04:47:57;;;;;;;13.40;8.80;;;;;;;23.45;54.14;100550.83;107949;1256;62144;-76
2023/07/04 04:50:25;;;;;;;12.00;8.10;;;;;;;23.59;53.63;100548.59;107826;1262;61270;-78
2023/07/04 04:52:53;;;;;;;11.00;8.00;;;;;;;23.68;52.97;100547.63;107948;1256;74678;-77
2023/07/04 04:55:21;;;;;;;13.40;10.00;;;;;;;23.75;52.26;100548.52;107885;1256;72768;-77
2023/07/04 04:57:47;;;;;;;15.70;12.60;;;;;;;23.85;51.69;100549.58;107890;1260;71396;-78
2023/07/04 05:00:16;;;;;;;15.20;11.80;;;;;;;23.95;51.53;100552.42;107730;1257;61157;-78
2023/07/04 05:02:44;;;;;;;14.80;10.00;;;;;;;24.04;51.25;100554.55;107952;1256;61251;-78
2023/07/04 05:05:12;;;;;;;11.80;9.20;;;;;;;24.12;50.98;100560.46;107805;1256;74448;-77
2023/07/04 05:07:39;;;;;;;10.30;8.30;;;;;;;24.21;50.83;100561.88;107864;1256;72718;-78
2023/07/04 05:10:06;;;;;;;10.30;7.40;;;;;;;24.26;49.32;100567.77;107744;1256;72487;-77
2023/07/04 05:12:34;;;;;;;10.50;8.00;;;;;;;24.31;48.59;100566.42;107901;1256;61135;-79
2023/07/04 05:15:03;;;;;;;12.80;8.30;;;;;;;24.38;48.70;100565.30;107867;1257;61107;-77
2023/07/04 05:17:33;;;;;;;10.10;7.40;;;;;;;24.49;48.06;100560.30;107980;1256;74683;-76
2023/07/04 05:20:00;;;;;;;9.80;7.40;;;;;;;24.58;47.70;100562.24;107850;1256;72470;-77
2023/07/04 05:22:27;;;;;;;9.50;7.40;;;;;;;24.66;47.54;100559.56;107917;1256;72721;-78
2023/07/04 05:24:56;;;;;;;10.70;7.20;;;;;;;24.77;47.45;100560.84;107819;1256;61224;-78
2023/07/04 05:27:23;;;;;;;9.20;7.00;;;;;;;24.87;46.65;100562.73;107993;1256;61226;-78
2023/07/04 05:29:50;;;;;;;7.60;6.50;;;;;;;24.92;46.65;100565.83;107906;1256;74575;-78
2023/07/04 05:32:17;;;;;;;9.70;7.20;;;;;;;25.02;46.54;100567.64;107975;1256;72548;-78
2023/07/04 05:34:48;;;;;;;9.80;6.90;;;;;;;25.15;46.38;100567.48;108004;1256;72599;-78
2023/07/04 05:37:16;;;;;;;10.60;7.20;;;;;;;25.27;46.11;100565.33;107911;1260;60351;-78
2023/07/04 05:39:44;;;;;;;9.80;6.80;;;;;;;25.37;45.73;100562.27;107991;1256;61135;-78
2023/07/04 05:42:10;;;;;;;8.60;6.50;;;;;;;25.47;45.11;100565.70;107901;1256;73376;-77
2023/07/04 05:44:37;;;;;;;9.80;6.90;;;;;;;25.57;44.69;100567.73;107881;1256;72097;-77
2023/07/04 05:47:05;;;;;;;9.70;6.70;;;;;;;25.69;44.63;100567.09;107951;1256;72571;-78
2023/07/04 05:49:31;;;;;;;9.70;6.40;;;;;;;25.85;44.54;100566.06;107838;1256;61067;-77
2023/07/04 05:51:58;;;;;;;8.80;6.70;;;;;;;26.00;44.19;100566.27;107873;1256;61131;-77
2023/07/04 05:54:25;;;;;;;9.40;6.90;;;;;;;26.14;43.73;100568.73;107954;1256;75203;-76
2023/07/04 05:56:53;;;;;;;8.70;6.90;;;;;;;26.27;43.17;100569.67;107933;1256;72935;-77
2023/07/04 05:59:20;;;;;;;9.60;6.30;;;;;;;26.39;43.16;100568.88;107786;1256;72687;-77
2023/07/04 06:01:47;;;;;;;10.70;7.20;;;;;;;26.56;42.69;100570.84;107944;1256;61353;-77
2023/07/04 06:04:14;;;;;;;11.60;7.40;;;;;;;26.67;41.96;100572.99;107877;1257;59993;-77
2023/07/04 06:07:01;;;;;;;9.20;6.70;;;;;;;26.76;41.73;100568.98;107913;1256;74710;-78
2023/07/04 06:09:28;;;;;;;10.90;7.40;;;;;;;26.82;41.00;100570.83;107947;1256;72732;-78
2023/07/04 06:11:55;;;;;;;10.40;6.80;;;;;;;26.80;41.37;100570.86;107961;1256;71556;-77
2023/07/04 06:14:24;;;;;;;9.90;6.50;;;;;;;26.81;41.52;100575.96;107932;1256;61234;-78
2023/07/04 06:16:51;;;;;;;9.10;6.40;;;;;;;26.93;42.07;100579.52;107913;1256;60743;-78
2023/07/04 06:19:21;;;;;;;9.90;5.90;;;;;;;27.03;41.97;100582.02;107868;1256;74522;-78
2023/07/04 06:21:48;;;;;;;8.30;5.80;;;;;;;27.14;41.22;100580.02;107752;1256;72728;-75
2023/07/04 06:24:16;;;;;;;9.00;5.90;;;;;;;27.26;40.51;100575.83;107908;1256;71140;-78
2023/07/04 06:26:44;;;;;;;9.60;5.60;;;;;;;27.34;40.13;100581.52;107746;1257;61379;-78
2023/07/04 06:29:11;;;;;;;8.90;5.40;;;;;;;27.45;39.50;100586.59;107795;1257;61136;-78
2023/07/04 06:31:42;;;;;;;7.70;5.30;;;;;;;27.49;38.88;100582.95;107848;1256;74738;-78
2023/07/04 06:34:09;;;;;;;8.80;5.60;;;;;;;27.42;38.31;100585.83;107930;1256;72518;-77
2023/07/04 06:36:36;;;;;;;9.80;5.80;;;;;;;27.43;38.15;100587.35;107853;1256;72214;-78
2023/07/04 06:39:04;;;;;;;7.30;4.90;;;;;;;27.50;37.14;100589.02;107959;1256;61017;-77
2023/07/04 06:41:32;;;;;;;7.10;5.20;;;;;;;27.58;35.06;100588.73;107953;1256;61099;-77
2023/07/04 06:43:59;;;;;;;7.80;4.90;;;;;;;27.63;34.78;100587.77;108001;1256;74577;-77
2023/07/04 06:46:26;;;;;;;8.40;4.80;;;;;;;27.72;34.40;100586.48;108007;1256;63917;-77
2023/07/04 06:48:53;;;;;;;8.60;5.20;;;;;;;27.81;33.36;100585.59;107938;1256;64157;-77
2023/07/04 06:51:20;;;;;;;7.20;4.70;;;;;;;27.85;33.77;100582.44;107951;1257;61138;-76
2023/07/04 06:53:47;;;;;;;7.70;4.40;;;;;;;27.92;33.81;100588.23;107710;1257;61305;-78
2023/07/04 06:56:20;;;;;;;7.70;5.20;;;;;;;27.99;33.51;100588.48;107747;1258;75872;-77
2023/07/04 06:58:52;;;;;;;8.50;5.20;;;;;;;28.07;33.66;100583.39;107737;1257;71520;-77
2023/07/04 07:01:22;;;;;;;8.00;4.80;;;;;;;28.16;32.79;100581.60;107778;1257;72663;-77
2023/07/04 07:03:50;;;;;;;8.00;4.60;;;;;;;28.25;32.03;100586.89;107808;1257;61240;-77
2023/07/04 07:06:17;;;;;;;9.60;5.10;;;;;;;28.31;31.44;100586.86;107798;1257;61140;-78
2023/07/04 07:08:45;;;;;;;6.20;4.80;;;;;;;28.36;31.22;100590.36;107932;1256;65980;-78
2023/07/04 07:11:15;;;;;;;6.40;4.80;;;;;;;28.40;31.14;100589.81;107704;1256;62943;-77
2023/07/04 07:13:43;;;;;;;8.90;5.10;;;;;;;28.40;31.16;100589.11;107848;1257;63846;-77
2023/07/04 07:16:12;;;;;;;7.70;4.90;;;;;;;28.43;30.92;100593.52;107867;1256;61136;-77
2023/07/04 07:18:41;;;;;;;8.00;5.00;;;;;;;28.51;31.18;100586.70;107952;1256;61266;-77
2023/07/04 07:21:10;;;;;;;7.50;4.80;;;;;;;28.55;30.73;100584.23;107904;1256;66207;-78
2023/07/04 07:23:38;;;;;;;7.60;5.20;;;;;;;28.52;30.98;100586.23;107934;1256;63919;-77
2023/07/04 07:26:06;;;;;;;9.50;5.60;;;;;;;28.55;30.88;100587.59;107970;1258;71268;-78
2023/07/04 07:28:41;;;;;;;7.10;4.80;;;;;;;28.55;30.76;100585.23;107958;1256;61109;-76
2023/07/04 07:31:19;;;;;;;8.50;4.70;;;;;;;28.60;31.49;100581.05;108031;1256;61115;-77
2023/07/04 07:33:48;;;;;;;7.50;5.20;;;;;;;28.70;30.96;100581.36;108138;1256;66052;-78
2023/07/04 07:36:23;;;;;;;8.20;5.20;;;;;;;28.70;30.30;100581.83;108039;1256;65484;-75
2023/07/04 07:38:51;;;;;;;7.40;5.20;;;;;;;28.70;30.76;100584.36;107919;1256;64166;-75
2023/07/04 07:41:19;;;;;;;8.20;5.20;;;;;;;28.76;31.01;100582.45;107954;1256;61238;-80
2023/07/04 07:43:46;;;;;;;7.00;5.10;;;;;;;28.86;30.55;100583.45;107961;1257;61232;-77
2023/07/04 07:46:14;;;;;;;9.10;5.60;;;;;;;28.94;30.28;100582.12;108000;1257;67215;-78
2023/07/04 07:48:41;;;;;;;7.80;4.90;;;;;;;28.97;29.80;100583.16;107953;1256;63881;-77
2023/07/04 07:51:10;;;;;;;7.90;5.40;;;;;;;28.98;29.29;100584.02;107944;1256;72642;-76
2023/07/04 07:53:38;;;;;;;8.80;4.80;;;;;;;28.98;29.05;100585.29;107841;1257;61354;-78
2023/07/04 07:56:07;;;;;;;7.20;4.90;;;;;;;29.04;29.10;100584.64;107931;1257;60400;-78
2023/07/04 07:58:34;;;;;;;8.70;5.20;;;;;;;29.16;29.03;100578.69;107729;1256;66063;-77
2023/07/04 08:01:29;;;;;;;6.50;4.70;;;;;;;29.28;28.49;100578.36;107928;1256;63802;-78
2023/07/04 08:03:57;;;;;;;7.40;4.80;;;;;;;29.39;28.21;100583.93;107865;1256;63726;-79
2023/07/04 08:06:46;;;;;;;6.90;4.70;;;;;;;29.46;26.83;100583.50;108052;1257;59490;-80
2023/07/04 08:09:15;;;;;;;7.70;4.20;;;;;;;29.57;25.12;100588.28;107713;1256;60406;-76
2023/07/04 08:11:43;;;;;;;6.90;4.70;;;;;;;29.66;24.04;100589.61;107915;1256;66039;-77
2023/07/04 08:14:10;;;;;;;6.30;4.20;;;;;;;29.75;23.67;100588.45;107813;1260;64046;-75
2023/07/04 08:16:44;;;;;;;8.40;5.20;;;;;;;29.80;23.43;100590.21;107791;1257;64070;-76
2023/07/04 08:19:13;;;;;;;7.40;5.20;;;;;;;29.84;24.77;100592.36;107609;1256;61269;-75
2023/07/04 08:21:39;;;;;;;6.80;5.00;;;;;;;29.95;24.47;100591.06;107895;1256;61151;-76
2023/07/04 08:24:10;;;;;;;8.60;4.80;;;;;;;30.03;24.07;100592.41;107684;1256;66100;-75
2023/07/04 08:26:39;;;;;;;8.10;4.90;;;;;;;30.04;24.38;100591.32;107748;1261;62935;-75
2023/07/04 08:29:07;;;;;;;7.80;5.20;;;;;;;30.04;23.90;100592.11;107691;1256;64515;-75
2023/07/04 08:31:36;;;;;;;6.60;4.60;;;;;;;29.99;23.94;100592.40;107921;1256;61273;-76
2023/07/04 08:34:03;;;;;;;7.20;5.10;;;;;;;30.02;23.67;100591.15;107869;1256;59277;-76
2023/07/04 08:36:30;;;;;;;9.70;5.50;;;;;;;30.08;23.42;100589.45;107926;1257;66086;-75
2023/07/04 08:38:57;;;;;;;7.30;5.20;;;;;;;30.14;24.42;100587.41;107792;1256;64061;-76
2023/07/04 08:41:38;;;;;;;7.10;5.10;;;;;;;30.21;24.58;100587.61;107719;1256;63932;-76
2023/07/04 08:44:27;;;;;;;9.20;5.10;;;;;;;30.25;25.03;100588.73;107939;1256;61130;-75
2023/07/04 08:46:54;;;;;;;7.50;5.20;;;;;;;30.36;24.83;100586.23;107954;1256;61257;-76
2023/07/04 08:49:34;;;;;;;7.10;4.80;;;;;;;30.43;24.87;100584.27;108032;1256;66076;-76
2023/07/04 08:52:04;;;;;;;8.30;5.10;;;;;;;30.42;24.63;100582.06;107980;1256;64172;-75
2023/07/04 08:54:34;;;;;;;12.40;5.30;;;;;;;30.41;24.62;100579.54;107962;1256;64098;-76
2023/07/04 08:57:06;;;;;;;7.80;5.10;;;;;;;30.46;24.97;100578.45;108068;1256;61182;-76
2023/07/04 08:59:37;;;;;;;7.80;5.20;;;;;;;30.55;24.88;100578.38;107886;1260;61135;-74
2023/07/04 09:02:11;;;;;;;7.00;5.00;;;;;;;30.64;24.77;100574.60;108002;1256;66152;-75
2023/07/04 09:04:46;;;;;;;8.20;5.50;;;;;;;30.78;25.02;100576.34;107909;1261;64136;-75
2023/07/04 09:07:17;;;;;;;8.20;5.00;;;;;;;30.95;24.69;100572.65;107949;1256;63742;-74
2023/07/04 09:09:59;;;;;;;7.30;4.80;;;;;;;31.13;24.35;100569.08;107765;1257;61144;-77
2023/07/04 09:12:30;;;;;;;13.20;7.10;;;;;;;31.22;23.88;100566.77;107778;1256;59983;-77
2023/07/04 09:15:09;;;;;;;;;;;;;;;31.24;22.74;100568.34;107984;1256;67363;-77
2023/07/04 09:17:39;;;;;;;7.40;5.40;;;;;;;31.12;22.68;100568.60;107728;1256;64128;-79
2023/07/04 09:20:09;;;;;;;8.10;4.90;;;;;;;30.96;22.66;100567.36;107608;1256;62864;-77
2023/07/04 09:22:36;;;;;;;7.90;5.20;;;;;;;30.86;22.62;100563.59;107635;1257;61275;-77
2023/07/04 09:25:03;;;;;;;7.60;5.10;;;;;;;30.84;22.79;100560.45;107794;1256;61263;-78
2023/07/04 09:27:31;;;;;;;8.50;5.60;;;;;;;30.83;23.34;100555.23;107912;1256;67308;-76
2023/07/04 09:29:58;;;;;;;8.10;5.20;;;;;;;30.91;23.09;100555.09;107804;1256;63968;-77
2023/07/04 09:32:25;;;;;;;6.10;4.50;;;;;;;31.05;22.51;100556.24;107701;1257;62737;-76
2023/07/04 09:34:54;;;;;;;7.60;4.70;;;;;;;31.08;20.90;100555.52;107973;1257;61695;-77
2023/07/04 09:37:23;;;;;;;6.40;4.40;;;;;;;30.96;20.43;100554.14;107866;1257;61289;-76
2023/07/04 09:39:54;;;;;;;7.20;4.40;;;;;;;30.93;20.95;100556.73;107958;1256;66152;-76
2023/07/04 09:42:25;;;;;;;6.50;4.40;;;;;;;31.02;20.73;100559.48;107881;1256;64109;-77
2023/07/04 09:45:12;;;;;;;6.40;4.60;;;;;;;31.08;20.61;100551.42;107843;1256;64063;-77
2023/07/04 09:47:46;;;;;;;7.20;4.00;;;;;;;31.16;20.35;100548.73;107773;1257;61488;-77
2023/07/04 09:50:15;;;;;;;5.40;4.10;;;;;;;31.23;20.81;100549.52;107786;1256;61157;-77
2023/07/04 09:52:44;;;;;;;8.80;4.80;;;;;;;31.24;20.95;100546.67;107854;1256;66010;-77
2023/07/04 09:55:27;;;;;;;6.20;4.30;;;;;;;31.31;21.18;100548.16;107863;1256;64098;-77
2023/07/04 09:58:19;;;;;;;6.90;4.60;;;;;;;31.41;21.16;100552.72;107717;1262;64185;-77
2023/07/04 10:01:00;;;;;;;7.10;4.70;;;;;;;31.47;21.49;100554.91;107772;1256;60690;-79
2023/07/04 10:03:35;;;;;;;6.60;5.00;;;;;;;31.58;22.06;100554.54;107905;1256;61727;-76
2023/07/04 10:06:04;;;;;;;6.30;4.60;;;;;;;31.72;21.77;100557.63;107806;1256;65883;-77
2023/07/04 10:08:33;;;;;;;7.60;4.90;;;;;;;31.82;21.37;100560.36;107786;1256;63993;-77
2023/07/04 10:11:01;;;;;;;7.60;5.10;;;;;;;31.87;21.47;100558.05;107985;1256;64081;-76
2023/07/04 10:13:37;;;;;;;6.70;4.60;;;;;;;31.92;21.30;100555.99;107803;1257;58990;-76
2023/07/04 10:16:23;;;;;;;5.60;4.00;;;;;;;31.95;21.40;100552.89;108005;1260;61256;-77
2023/07/04 10:18:50;;;;;;;7.20;4.50;;;;;;;31.99;21.37;100555.08;107954;1256;66256;-77
2023/07/04 10:21:17;;;;;;;9.70;4.90;;;;;;;31.99;21.41;100551.06;107947;1257;63962;-77
2023/07/04 10:23:45;;;;;;;6.20;4.50;;;;;;;31.94;21.21;100551.09;107764;1257;63774;-77
2023/07/04 10:26:12;;;;;;;7.30;4.60;;;;;;;31.92;21.07;100549.27;107750;1258;61242;-76
2023/07/04 10:28:39;;;;;;;6.50;4.40;;;;;;;31.90;21.18;100548.66;107587;1259;61256;-76
2023/07/04 10:31:11;;;;;;;5.30;3.80;;;;;;;31.94;21.88;100548.01;107736;1257;65949;-77
2023/07/04 10:33:41;;;;;;;6.00;3.80;;;;;;;32.01;21.45;100548.99;107735;1256;63909;-75
2023/07/04 10:36:10;;;;;;;5.50;4.20;;;;;;;32.12;21.23;100549.32;107744;1256;64172;-75
2023/07/04 10:38:47;;;;;;;5.30;3.90;;;;;;;32.24;21.51;100549.24;108003;1262;60569;-76
2023/07/04 10:41:35;;;;;;;5.50;3.80;;;;;;;32.32;21.40;100552.02;107960;1256;59999;-76
2023/07/04 10:44:25;;;;;;;6.80;4.30;;;;;;;32.34;21.25;100550.59;108001;1256;65988;-77
2023/07/04 10:47:02;;;;;;;6.90;3.70;;;;;;;32.36;21.37;100551.05;107745;1256;63900;-77
2023/07/04 10:49:43;;;;;;;4.60;3.20;;;;;;;32.48;21.24;100544.98;107847;1256;62543;-75
2023/07/04 10:52:14;;;;;;;5.90;4.00;;;;;;;32.58;20.88;100545.30;107565;1256;61333;-74
2023/07/04 10:54:41;;;;;;;5.30;3.70;;;;;;;32.63;20.94;100545.26;107856;1257;61247;-74
2023/07/04 10:57:30;;;;;;;6.20;3.90;;;;;;;32.67;21.38;100542.45;107589;1256;65043;-76
2023/07/04 11:00:14;;;;;;;5.60;3.90;;;;;;;32.64;20.78;100538.86;107871;1256;64255;-76
2023/07/04 11:02:49;;;;;;;7.30;4.40;;;;;;;32.60;20.95;100536.52;107981;1256;63863;-75
2023/07/04 11:05:22;;;;;;;8.70;4.20;;;;;;;32.61;20.82;100535.65;107792;1257;61261;-76
2023/07/04 11:07:54;;;;;;;6.00;4.60;;;;;;;32.57;21.06;100537.02;107852;1256;61221;-77
2023/07/04 11:10:23;;;;;;;6.50;4.50;;;;;;;32.53;20.99;100535.48;108000;1256;65832;-77
2023/07/04 11:12:56;;;;;;;6.40;4.10;;;;;;;32.46;20.94;100534.58;108011;1256;63809;-78
2023/07/04 11:15:28;;;;;;;6.90;4.60;;;;;;;32.44;20.84;100537.05;107653;1256;62621;-77
2023/07/04 11:17:55;;;;;;;5.10;4.00;;;;;;;32.58;21.37;100535.59;107938;1256;61335;-78
2023/07/04 11:20:47;;;;;;;6.10;4.00;;;;;;;32.83;21.85;100529.89;108020;1256;61780;-77
2023/07/04 11:23:16;;;;;;;6.60;4.00;;;;;;;32.87;21.07;100527.58;107787;1256;64778;-78
2023/07/04 11:25:48;;;;;;;6.20;4.10;;;;;;;32.80;20.98;100530.09;107973;1256;62940;-75
2023/07/04 11:28:25;;;;;;;7.00;4.30;;;;;;;32.67;20.87;100534.64;107928;1256;62567;-77